Time;durP1;ratioP1;P1;durP2;ratioP2;P2;SDS_P1;SDS_P2;PMS_P1;PMS_P2;Temp;Humidity;BMP_temperature;BMP_pressure;BME280_temperature;BME280_humidity;BME280_pressure;Samples;Min_cycle;Max_cycle;Signal;HPM_P1;HPM_P2
2022/04/17 00:02:03;;;;;;;3.30;2.30;;;;;;;3.10;76.09;99758.45;109732;1270;22514;-60
2022/04/17 00:04:34;;;;;;;3.80;2.30;;;;;;;3.10;76.40;99761.30;109714;1271;23237;-61
2022/04/17 00:07:02;;;;;;;2.40;1.80;;;;;;;3.07;76.24;99761.63;109726;1271;23297;-61
2022/04/17 00:09:33;;;;;;;3.70;2.10;;;;;;;3.06;76.55;99765.77;109721;1270;23510;-61
2022/04/17 00:12:01;;;;;;;5.00;2.00;;;;;;;3.03;76.63;99760.79;109746;1271;23226;-61
2022/04/17 00:14:29;;;;;;;5.00;2.20;;;;;;;2.99;76.80;99764.14;109727;1271;22423;-61
2022/04/17 00:16:57;;;;;;;3.50;2.00;;;;;;;2.98;76.92;99762.16;109705;1271;22422;-60
2022/04/17 00:19:45;;;;;;;2.90;2.40;;;;;;;2.98;77.05;99767.23;109698;1269;22484;-60
2022/04/17 00:22:14;;;;;;;2.40;2.10;;;;;;;2.97;77.04;99764.84;109714;1270;23336;-61
2022/04/17 00:25:02;;;;;;;4.60;2.70;;;;;;;2.98;77.17;99768.52;109722;1271;22449;-61
2022/04/17 00:27:30;;;;;;;2.80;2.40;;;;;;;2.97;77.30;99768.94;109698;1271;22408;-61
2022/04/17 00:29:58;;;;;;;3.20;2.30;;;;;;;2.96;77.38;99771.46;109751;1271;23093;-61
2022/04/17 00:32:26;;;;;;;2.90;2.60;;;;;;;2.94;77.58;99765.90;109750;1270;22522;-61
2022/04/17 00:34:55;;;;;;;3.60;2.70;;;;;;;2.94;77.82;99762.14;109708;1271;22538;-61
2022/04/17 00:37:23;;;;;;;4.40;3.10;;;;;;;2.93;77.94;99763.02;109704;1270;22410;-61
2022/04/17 00:39:51;;;;;;;3.90;2.70;;;;;;;2.94;78.04;99768.33;109708;1270;22433;-60
2022/04/17 00:42:21;;;;;;;3.00;2.60;;;;;;;2.96;78.11;99768.55;109658;1270;22406;-61
2022/04/17 00:44:49;;;;;;;4.60;2.30;;;;;;;2.96;78.23;99768.48;109663;1272;22437;-61
2022/04/17 00:47:17;;;;;;;4.20;3.10;;;;;;;2.96;78.36;99766.61;109760;1271;22459;-61
2022/04/17 00:49:45;;;;;;;5.90;3.00;;;;;;;2.95;78.60;99764.17;109653;1272;22447;-61
2022/04/17 00:52:14;;;;;;;5.00;2.80;;;;;;;2.94;78.62;99761.77;109723;1271;22422;-61
2022/04/17 00:54:44;;;;;;;3.90;2.60;;;;;;;2.93;78.78;99764.45;109687;1270;22301;-61
2022/04/17 00:57:15;;;;;;;6.70;3.00;;;;;;;2.93;78.80;99765.32;109729;1271;23304;-61
2022/04/17 00:59:46;;;;;;;3.40;2.90;;;;;;;2.93;78.89;99764.45;109730;1271;22451;-61
2022/04/17 01:02:14;;;;;;;3.80;2.70;;;;;;;2.92;78.99;99762.41;109731;1270;23092;-61
2022/04/17 01:04:44;;;;;;;4.90;2.80;;;;;;;2.91;79.09;99762.08;109735;1271;22430;-61
2022/04/17 01:07:13;;;;;;;4.10;3.40;;;;;;;2.93;79.14;99761.75;105993;1271;22561;-60
2022/04/17 01:10:03;;;;;;;4.80;3.20;;;;;;;2.93;79.26;99761.09;109695;1270;23472;-61
2022/04/17 01:12:36;;;;;;;6.40;3.40;;;;;;;2.92;79.20;99756.70;109761;1271;22435;-61
2022/04/17 01:15:23;;;;;;;6.40;2.90;;;;;;;2.91;79.42;99755.75;109711;1271;22420;-61
2022/04/17 01:17:51;;;;;;;4.70;3.10;;;;;;;2.93;79.37;99757.69;109724;1271;23182;-61
2022/04/17 01:20:40;;;;;;;4.40;3.20;;;;;;;2.94;79.47;99754.84;109614;1271;22426;-60
2022/04/17 01:28:43;;;;;;;3.50;2.60;;;;;;;2.90;79.70;99763.39;109716;1271;22249;-61
2022/04/17 01:31:11;;;;;;;5.50;3.00;;;;;;;2.89;79.75;99758.67;109734;1271;22537;-60
2022/04/17 01:33:41;;;;;;;5.20;3.10;;;;;;;2.90;79.87;99755.53;109739;1271;22432;-61
2022/04/17 01:36:15;;;;;;;6.40;3.00;;;;;;;2.90;79.83;99753.50;107717;1271;22584;-60
2022/04/17 01:38:44;;;;;;;4.30;3.00;;;;;;;2.89;79.95;99750.43;105284;1271;24259;-60
2022/04/17 01:41:15;;;;;;;5.00;3.00;;;;;;;2.90;80.03;99746.92;109680;1271;23223;-61
2022/04/17 01:43:43;;;;;;;4.70;3.10;;;;;;;2.92;80.03;99747.55;109685;1271;22509;-60
2022/04/17 01:46:13;;;;;;;4.80;3.10;;;;;;;2.91;80.15;99750.02;109774;1270;22441;-61
2022/04/17 01:48:41;;;;;;;3.50;3.00;;;;;;;2.89;80.24;99751.20;109738;1271;22458;-61
2022/04/17 01:51:09;;;;;;;4.40;3.00;;;;;;;2.87;80.24;99750.08;109687;1271;22528;-61
2022/04/17 01:53:46;;;;;;;4.30;3.20;;;;;;;2.85;80.35;99742.54;109701;1270;22432;-61
2022/04/17 01:56:20;;;;;;;4.30;2.60;;;;;;;2.85;80.65;99744.73;109752;1271;23256;-61
2022/04/17 01:58:52;;;;;;;2.90;2.20;;;;;;;2.84;80.77;99747.50;109704;1271;22519;-60
2022/04/17 02:01:20;;;;;;;4.70;2.80;;;;;;;2.84;80.80;99743.90;109668;1272;22267;-60
2022/04/17 02:03:48;;;;;;;4.10;3.00;;;;;;;2.82;81.01;99746.66;109712;1271;22524;-60
2022/04/17 02:06:17;;;;;;;5.90;2.90;;;;;;;2.79;81.40;99745.20;109691;1270;22413;-60
2022/04/17 02:08:45;;;;;;;5.10;2.80;;;;;;;2.74;81.75;99743.11;109665;1270;23052;-60
2022/04/17 02:11:13;;;;;;;3.80;2.80;;;;;;;2.68;81.80;99737.06;109709;1271;23637;-60
2022/04/17 02:13:42;;;;;;;5.30;2.80;;;;;;;2.67;82.05;99735.11;109706;1271;22488;-60
2022/04/17 02:16:30;;;;;;;5.80;3.40;;;;;;;2.65;82.26;99737.33;109696;1271;22478;-60
2022/04/17 02:19:00;;;;;;;5.30;3.30;;;;;;;2.63;82.38;99736.13;109721;1270;23162;-60
2022/04/17 02:21:38;;;;;;;2.90;2.30;;;;;;;2.63;82.62;99736.48;109724;1271;23294;-60
2022/04/17 02:24:06;;;;;;;4.10;2.70;;;;;;;2.63;82.72;99737.60;109706;1270;22448;-60
2022/04/17 02:26:36;;;;;;;5.50;2.80;;;;;;;2.61;82.82;99737.64;109716;1271;23374;-60
2022/04/17 02:29:04;;;;;;;5.20;2.90;;;;;;;2.58;82.96;99731.32;109735;1271;22437;-60
2022/04/17 02:31:32;;;;;;;3.20;2.40;;;;;;;2.56;83.05;99730.60;109711;1271;23325;-60
2022/04/17 02:34:00;;;;;;;3.90;2.70;;;;;;;2.54;83.19;99728.16;109730;1271;23472;-60
2022/04/17 02:36:29;;;;;;;3.20;2.40;;;;;;;2.53;83.33;99728.14;109686;1271;22468;-60
2022/04/17 02:38:58;;;;;;;3.80;2.80;;;;;;;2.49;83.40;99728.08;109696;1270;22416;-60
2022/04/17 02:41:26;;;;;;;3.80;2.20;;;;;;;2.47;83.44;99724.02;109694;1271;23344;-60
2022/04/17 02:43:54;;;;;;;3.20;2.20;;;;;;;2.47;83.62;99723.52;109719;1271;22437;-60
2022/04/17 02:49:09;;;;;;;3.20;2.40;;;;;;;2.45;83.86;99720.55;105399;1271;23998;-59
2022/04/17 02:51:45;;;;;;;3.00;2.00;;;;;;;2.42;84.06;99721.98;109697;1271;22353;-60
2022/04/17 02:54:14;;;;;;;2.80;2.20;;;;;;;2.38;84.08;99720.77;109708;1270;22397;-60
2022/04/17 02:56:53;;;;;;;4.90;3.40;;;;;;;2.33;84.30;99718.38;109625;1273;23516;-60
2022/04/17 02:59:21;;;;;;;4.60;3.00;;;;;;;2.32;84.27;99716.01;109712;1271;22408;-60
2022/04/17 03:07:24;;;;;;;5.00;2.80;;;;;;;2.30;84.95;99716.52;109696;1271;22548;-60
2022/04/17 03:09:58;;;;;;;3.90;3.20;;;;;;;2.28;85.18;99717.20;109685;1270;22409;-60
2022/04/17 03:12:26;;;;;;;6.10;3.60;;;;;;;2.29;85.51;99716.88;109713;1269;23009;-60
2022/04/17 03:15:03;;;;;;;4.30;2.80;;;;;;;2.29;85.45;99718.79;109712;1271;22417;-60
2022/04/17 03:17:40;;;;;;;5.20;3.50;;;;;;;2.28;85.81;99718.54;109672;1273;22399;-60
2022/04/17 03:20:09;;;;;;;5.50;3.10;;;;;;;2.29;85.93;99716.64;109765;1271;22411;-61
2022/04/17 03:22:41;;;;;;;3.80;3.00;;;;;;;2.32;86.14;99718.77;109686;1271;22485;-60
2022/04/17 03:25:20;;;;;;;6.40;3.30;;;;;;;2.33;86.22;99721.80;109704;1270;22534;-60
2022/04/17 03:27:50;;;;;;;5.50;3.00;;;;;;;2.32;86.17;99720.14;109731;1271;22358;-60
2022/04/17 03:30:18;;;;;;;3.60;2.80;;;;;;;2.31;86.27;99722.38;109706;1271;22467;-60
2022/04/17 03:32:47;;;;;;;6.00;3.30;;;;;;;2.32;86.49;99721.17;109716;1271;23116;-60
2022/04/17 03:35:18;;;;;;;4.90;3.30;;;;;;;2.35;86.49;99719.25;109716;1271;22489;-60
2022/04/17 03:37:46;;;;;;;3.60;3.00;;;;;;;2.38;86.48;99721.16;109697;1271;22414;-60
2022/04/17 03:40:16;;;;;;;4.20;2.80;;;;;;;2.40;86.52;99721.89;109715;1270;22449;-60
2022/04/17 03:42:44;;;;;;;4.30;3.00;;;;;;;2.44;86.72;99722.50;109698;1272;22414;-60
2022/04/17 03:45:14;;;;;;;3.50;2.50;;;;;;;2.46;86.69;99725.12;109723;1271;22452;-60
2022/04/17 03:47:43;;;;;;;3.40;2.70;;;;;;;2.46;86.55;99718.79;109723;1271;22422;-60
2022/04/17 03:50:12;;;;;;;2.80;2.50;;;;;;;2.48;86.61;99723.02;109692;1271;22562;-60
2022/04/17 03:52:42;;;;;;;3.70;2.50;;;;;;;2.48;86.76;99725.22;109724;1271;22409;-60
2022/04/17 03:55:30;;;;;;;4.80;3.80;;;;;;;2.47;86.62;99728.52;109714;1270;22424;-60
2022/04/17 03:58:01;;;;;;;2.30;2.10;;;;;;;2.47;86.68;99730.51;109704;1271;22526;-60
2022/04/17 04:00:29;;;;;;;4.60;2.60;;;;;;;2.48;86.65;99733.74;109736;1271;22501;-60
2022/04/17 04:03:03;;;;;;;3.90;2.20;;;;;;;2.48;86.51;99740.94;109729;1271;23023;-60
2022/04/17 04:05:31;;;;;;;3.20;2.50;;;;;;;2.49;86.41;99743.46;109719;1271;23762;-60
2022/04/17 04:08:01;;;;;;;2.70;2.30;;;;;;;2.51;86.53;99741.30;109681;1272;22406;-60
2022/04/17 04:10:32;;;;;;;3.30;2.60;;;;;;;2.53;86.49;99742.58;109670;1270;22583;-60
2022/04/17 04:13:01;;;;;;;3.30;2.30;;;;;;;2.53;86.36;99742.38;109710;1271;22420;-60
2022/04/17 04:15:30;;;;;;;3.20;2.40;;;;;;;2.54;86.40;99741.67;109714;1271;22371;-60
2022/04/17 04:17:58;;;;;;;3.10;2.30;;;;;;;2.56;86.30;99743.92;109703;1272;22466;-61
2022/04/17 04:20:42;;;;;;;4.20;2.30;;;;;;;2.57;86.27;99742.86;109721;1270;22491;-60
2022/04/17 04:23:10;;;;;;;4.00;2.70;;;;;;;2.60;86.42;99748.94;109729;1271;22413;-60
2022/04/17 04:25:39;;;;;;;5.80;2.60;;;;;;;2.63;86.29;99749.95;109714;1270;22254;-60
2022/04/17 04:28:33;;;;;;;5.40;2.50;;;;;;;2.66;86.39;99756.73;109743;1270;22394;-60
2022/04/17 04:31:01;;;;;;;5.00;2.50;;;;;;;2.68;86.20;99755.80;109632;1271;22404;-60
2022/04/17 04:33:31;;;;;;;7.90;2.90;;;;;;;2.70;85.99;99756.23;109726;1271;23250;-60
2022/04/17 04:35:59;;;;;;;5.90;2.50;;;;;;;2.71;85.97;99761.33;109723;1271;22475;-60
2022/04/17 04:38:27;;;;;;;7.00;2.70;;;;;;;2.71;85.84;99762.93;109666;1271;22398;-60
2022/04/17 04:40:56;;;;;;;6.00;3.10;;;;;;;2.73;85.90;99764.07;109653;1271;22477;-60
2022/04/17 04:43:24;;;;;;;5.70;2.60;;;;;;;2.74;85.79;99770.67;109729;1270;23424;-60
2022/04/17 04:46:07;;;;;;;4.60;2.60;;;;;;;2.76;85.65;99773.29;109748;1271;22411;-61
2022/04/17 04:51:30;;;;;;;5.30;2.60;;;;;;;2.83;85.74;99772.09;109704;1271;22720;-60
2022/04/17 04:53:59;;;;;;;5.10;2.80;;;;;;;2.86;85.74;99770.23;109649;1272;22849;-60
2022/04/17 04:56:38;;;;;;;5.20;2.80;;;;;;;2.91;85.60;99773.34;109722;1270;22460;-61
2022/04/17 04:59:06;;;;;;;3.90;2.70;;;;;;;2.94;85.49;99770.33;109724;1271;23060;-61
2022/04/17 05:01:37;;;;;;;5.00;2.60;;;;;;;2.94;85.51;99772.73;109721;1271;22475;-60
2022/04/17 05:04:04;;;;;;;6.90;2.90;;;;;;;2.98;85.35;99770.47;109725;1271;22415;-60
2022/04/17 05:06:32;;;;;;;8.30;3.10;;;;;;;3.01;85.15;99771.69;109710;1271;22276;-60
2022/04/17 05:09:20;;;;;;;6.10;3.00;;;;;;;3.02;85.06;99771.70;109712;1271;22394;-60
2022/04/17 05:11:49;;;;;;;5.10;3.30;;;;;;;3.01;84.69;99771.32;109716;1270;22393;-60
2022/04/17 05:14:41;;;;;;;5.20;3.10;;;;;;;3.01;84.62;99770.20;109739;1271;22475;-60
2022/04/17 05:17:09;;;;;;;4.90;3.00;;;;;;;3.01;84.55;99772.52;109721;1271;22409;-60
2022/04/17 05:19:38;;;;;;;4.70;2.90;;;;;;;3.01;84.27;99768.30;109733;1271;22559;-60
2022/04/17 05:22:15;;;;;;;4.40;2.60;;;;;;;2.99;84.02;99769.83;109722;1271;22396;-60
2022/04/17 05:24:43;;;;;;;6.60;2.80;;;;;;;2.97;84.15;99770.23;109714;1271;22441;-60
2022/04/17 05:27:13;;;;;;;6.00;3.20;;;;;;;2.95;84.25;99766.73;105845;1273;25265;-59
2022/04/17 05:29:41;;;;;;;5.50;2.90;;;;;;;2.94;84.29;99772.16;109708;1271;23186;-60
2022/04/17 05:32:09;;;;;;;4.90;2.30;;;;;;;2.95;84.54;99772.29;109723;1271;22453;-60
2022/04/17 05:34:57;;;;;;;3.50;1.90;;;;;;;2.91;84.14;99782.13;109747;1271;22421;-60
2022/04/17 05:37:27;;;;;;;3.30;1.80;;;;;;;2.83;83.80;99782.60;109736;1270;22433;-60
2022/04/17 05:39:54;;;;;;;2.30;1.70;;;;;;;2.76;83.64;99784.09;109711;1271;22428;-60
2022/04/17 05:42:42;;;;;;;1.80;1.30;;;;;;;2.67;83.51;99781.33;109718;1270;22443;-60
2022/04/17 05:45:10;;;;;;;1.60;1.00;;;;;;;2.60;83.74;99785.39;109641;1273;22391;-60
2022/04/17 05:47:38;;;;;;;1.60;1.20;;;;;;;2.54;83.88;99789.39;109677;1272;22409;-60
2022/04/17 05:50:07;;;;;;;2.60;1.70;;;;;;;2.48;83.89;99793.65;107538;1271;25368;-60
2022/04/17 05:52:36;;;;;;;1.80;1.30;;;;;;;2.42;83.95;99791.27;105364;1271;24293;-61
2022/04/17 05:55:05;;;;;;;2.10;1.40;;;;;;;2.33;83.89;99788.48;105408;1271;24970;-61
2022/04/17 05:57:37;;;;;;;1.10;1.00;;;;;;;2.25;83.89;99788.69;109673;1271;22435;-59
2022/04/17 06:00:08;;;;;;;1.30;1.20;;;;;;;2.18;84.18;99790.98;109733;1271;22495;-60
2022/04/17 06:02:44;;;;;;;1.90;1.10;;;;;;;2.10;84.39;99793.06;109724;1271;22405;-60
2022/04/17 06:05:14;;;;;;;1.80;1.20;;;;;;;2.02;84.17;99795.77;109722;1271;22416;-61
2022/04/17 06:07:43;;;;;;;1.60;1.20;;;;;;;1.94;84.12;99800.22;109682;1272;22413;-60
2022/04/17 06:10:31;;;;;;;;;;;;;;;1.85;84.57;99798.33;109742;1271;22553;-60
2022/04/17 06:13:00;;;;;;;1.50;1.30;;;;;;;1.81;84.95;99801.57;109736;1270;22407;-61
2022/04/17 06:15:48;;;;;;;;;;;;;;;1.78;84.99;99797.00;109750;1271;22468;-60
2022/04/17 06:18:18;;;;;;;3.40;1.80;;;;;;;1.78;85.15;99804.11;109707;1271;22391;-60
2022/04/17 06:21:06;;;;;;;3.80;2.00;;;;;;;1.76;85.08;99801.92;109722;1270;22449;-59
2022/04/17 06:23:34;;;;;;;4.30;2.30;;;;;;;1.75;85.31;99803.41;109680;1271;23099;-60
2022/04/17 06:26:22;;;;;;;;;;;;;;;1.74;85.73;99807.70;109702;1270;22472;-60
2022/04/17 06:28:50;;;;;;;4.70;2.80;;;;;;;1.73;85.68;99805.30;109687;1271;22524;-60
2022/04/17 06:31:18;;;;;;;8.00;3.60;;;;;;;1.73;85.77;99807.75;109716;1271;22450;-60
2022/04/17 06:34:03;;;;;;;6.00;3.10;;;;;;;1.70;85.85;99806.04;109738;1271;22344;-60
2022/04/17 06:36:31;;;;;;;6.20;3.20;;;;;;;1.68;85.60;99806.17;109770;1270;23520;-60
2022/04/17 06:39:02;;;;;;;9.10;3.60;;;;;;;1.66;85.64;99808.39;109716;1271;23250;-60
2022/04/17 06:41:50;;;;;;;7.60;3.50;;;;;;;1.66;85.59;99805.20;109726;1271;22435;-60
2022/04/17 06:44:19;;;;;;;7.10;3.40;;;;;;;1.67;85.95;99809.31;109747;1271;22420;-60
2022/04/17 06:46:51;;;;;;;7.30;3.60;;;;;;;1.68;85.71;99810.52;109269;1273;518641;-60
2022/04/17 06:50:48;;;;;;;9.20;3.90;;;;;;;1.69;86.02;99808.67;101996;1309;545333;-59
2022/04/17 06:53:17;;;;;;;6.30;3.40;;;;;;;1.68;86.12;99809.90;104559;1283;24300;-62
2022/04/17 06:55:46;;;;;;;6.10;4.00;;;;;;;1.70;86.15;99809.67;108682;1282;23683;-60
2022/04/17 06:58:15;;;;;;;6.40;3.80;;;;;;;1.73;86.23;99812.46;108691;1281;22407;-60
2022/04/17 07:00:43;;;;;;;8.00;4.10;;;;;;;1.76;86.44;99814.09;108683;1283;22586;-60
2022/04/17 07:03:16;;;;;;;7.40;4.30;;;;;;;1.80;86.28;99815.40;108711;1282;23535;-60
2022/04/17 07:05:56;;;;;;;10.30;6.10;;;;;;;1.83;86.46;99816.88;108910;1281;22454;-60
2022/04/17 07:08:25;;;;;;;10.20;5.40;;;;;;;1.84;86.65;99819.82;109060;1280;22912;-61
2022/04/17 07:11:17;;;;;;;9.60;5.00;;;;;;;1.82;86.62;99820.38;109050;1280;23413;-61
2022/04/17 07:13:45;;;;;;;12.70;5.80;;;;;;;1.80;86.64;99817.02;109045;1280;22499;-61
2022/04/17 07:16:33;;;;;;;13.40;5.20;;;;;;;1.82;86.53;99819.67;108901;1281;22417;-60
2022/04/17 07:19:01;;;;;;;11.80;6.10;;;;;;;1.85;86.88;99817.44;109077;1279;23269;-60
2022/04/17 07:21:48;;;;;;;8.80;5.30;;;;;;;1.91;86.82;99815.03;109032;1281;22472;-60
2022/04/17 07:24:17;;;;;;;6.80;4.40;;;;;;;1.96;86.92;99817.64;109084;1280;22430;-60
2022/04/17 07:26:53;;;;;;;5.20;3.30;;;;;;;2.01;87.02;99822.52;109009;1280;23241;-60
2022/04/17 07:29:22;;;;;;;3.90;3.10;;;;;;;2.04;87.18;99824.88;109032;1280;23459;-61
2022/04/17 07:31:51;;;;;;;3.20;2.60;;;;;;;2.06;87.16;99823.91;109053;1281;22526;-60
2022/04/17 07:34:20;;;;;;;2.80;1.90;;;;;;;2.05;87.14;99823.77;109021;1280;23357;-61
2022/04/17 07:36:52;;;;;;;2.90;2.30;;;;;;;2.05;87.16;99818.73;106038;1281;24200;-60
2022/04/17 07:39:22;;;;;;;2.00;1.80;;;;;;;2.06;86.95;99818.70;109000;1281;23235;-60
2022/04/17 07:41:50;;;;;;;2.40;1.80;;;;;;;2.08;87.02;99816.81;108973;1280;22472;-60
2022/04/17 07:44:19;;;;;;;1.50;1.30;;;;;;;2.11;86.68;99814.98;109016;1281;22471;-60
2022/04/17 07:46:47;;;;;;;2.60;2.30;;;;;;;2.14;86.79;99806.48;109010;1280;22596;-60
2022/04/17 07:49:17;;;;;;;2.00;1.50;;;;;;;2.21;86.86;99801.69;109007;1280;22444;-60
2022/04/17 07:51:45;;;;;;;1.60;1.50;;;;;;;2.30;86.90;99802.13;109003;1280;22559;-60
2022/04/17 07:54:13;;;;;;;2.10;1.80;;;;;;;2.38;86.69;99799.11;108683;1282;23164;-61
2022/04/17 07:56:41;;;;;;;2.30;1.80;;;;;;;2.49;86.84;99796.84;108931;1281;22438;-60
2022/04/17 07:59:09;;;;;;;2.70;1.80;;;;;;;2.64;87.26;99798.26;109004;1280;22376;-60
2022/04/17 08:01:39;;;;;;;2.90;2.00;;;;;;;2.82;87.57;99798.15;108949;1281;22449;-60
2022/04/17 08:04:07;;;;;;;2.80;2.20;;;;;;;2.99;87.80;99800.45;108916;1281;23119;-60
2022/04/17 08:06:40;;;;;;;2.10;1.70;;;;;;;3.06;87.55;99800.71;106308;1281;25280;-61
2022/04/17 08:09:09;;;;;;;2.20;1.70;;;;;;;3.07;87.07;99801.10;108908;1281;23296;-60
2022/04/17 08:11:37;;;;;;;3.20;2.20;;;;;;;3.07;86.68;99801.38;108695;1282;22425;-60
2022/04/17 08:14:08;;;;;;;2.80;2.00;;;;;;;3.06;86.29;99797.94;108917;1282;23335;-60
2022/04/17 08:16:36;;;;;;;5.30;2.80;;;;;;;3.04;86.23;99793.83;108718;1282;22473;-60
2022/04/17 08:19:08;;;;;;;3.70;2.10;;;;;;;3.05;86.15;99790.31;108899;1282;23453;-59
2022/04/17 08:21:37;;;;;;;2.30;2.10;;;;;;;3.09;86.30;99791.70;108920;1281;23142;-59
2022/04/17 08:24:06;;;;;;;3.50;3.10;;;;;;;3.15;86.49;99792.34;108927;1282;22754;-59
2022/04/17 08:26:35;;;;;;;4.60;3.10;;;;;;;3.23;86.59;99798.31;108900;1282;22384;-60
2022/04/17 08:29:03;;;;;;;4.90;3.10;;;;;;;3.29;86.47;99792.30;108603;1281;22383;-59
2022/04/17 08:31:33;;;;;;;2.70;2.20;;;;;;;3.37;86.26;99792.67;108927;1282;22428;-59
2022/04/17 08:34:01;;;;;;;7.70;4.50;;;;;;;3.42;86.01;99790.16;108938;1282;22409;-60
2022/04/17 08:36:30;;;;;;;42.90;25.90;;;;;;;3.48;85.75;99787.63;106672;1282;24254;-59
2022/04/17 08:38:58;;;;;;;7.10;5.10;;;;;;;3.53;85.23;99791.74;105096;1280;22586;-60
2022/04/17 08:41:26;;;;;;;15.20;9.40;;;;;;;3.58;84.55;99792.75;109095;1278;23308;-60
2022/04/17 08:43:55;;;;;;;3.70;2.70;;;;;;;3.60;83.73;99784.33;109084;1280;22397;-59
2022/04/17 08:46:24;;;;;;;3.20;1.90;;;;;;;3.66;82.80;99783.95;109125;1277;22454;-60
2022/04/17 08:48:53;;;;;;;2.20;1.80;;;;;;;3.75;82.23;99779.56;109218;1279;22569;-60
2022/04/17 08:51:47;;;;;;;2.40;1.80;;;;;;;3.93;81.58;99775.70;108936;1278;22453;-59
2022/04/17 08:54:16;;;;;;;2.00;1.30;;;;;;;4.14;80.87;99777.83;109228;1279;22484;-60
2022/04/17 08:56:49;;;;;;;1.50;1.40;;;;;;;4.35;80.58;99781.48;109082;1279;22282;-60
2022/04/17 08:59:18;;;;;;;1.70;1.40;;;;;;;4.54;80.22;99778.98;109044;1279;23511;-60
2022/04/17 09:01:46;;;;;;;3.50;2.00;;;;;;;4.73;80.29;99782.15;109130;1279;22629;-60
2022/04/17 09:04:16;;;;;;;2.90;2.00;;;;;;;4.82;79.56;99789.79;109209;1278;23232;-60
2022/04/17 09:06:44;;;;;;;3.00;1.80;;;;;;;4.76;78.99;99791.84;109182;1280;23119;-59
2022/04/17 09:09:12;;;;;;;2.60;1.60;;;;;;;4.65;78.64;99800.86;109229;1278;22390;-60
2022/04/17 09:11:40;;;;;;;4.90;2.70;;;;;;;4.52;77.84;99803.71;109209;1278;22509;-60
2022/04/17 09:14:09;;;;;;;4.60;2.40;;;;;;;4.41;77.64;99799.06;109178;1278;22462;-60
2022/04/17 09:16:40;;;;;;;5.40;2.70;;;;;;;4.40;77.34;99805.62;109216;1278;22423;-60
2022/04/17 09:19:17;;;;;;;9.50;4.60;;;;;;;4.36;77.38;99798.31;109243;1280;22521;-60
2022/04/17 09:21:45;;;;;;;5.50;3.30;;;;;;;4.37;77.87;99799.35;109123;1279;22512;-60
2022/04/17 09:24:37;;;;;;;10.90;3.50;;;;;;;4.39;77.87;99787.56;109214;1278;23446;-59
2022/04/17 09:27:06;;;;;;;7.10;3.50;;;;;;;4.46;77.98;99786.52;109200;1278;22414;-59
2022/04/17 09:29:38;;;;;;;6.30;3.00;;;;;;;4.58;77.95;99784.66;109173;1278;23308;-60
2022/04/17 09:32:11;;;;;;;14.80;5.00;;;;;;;4.68;76.87;99777.52;109214;1278;22488;-59
2022/04/17 09:34:42;;;;;;;9.10;3.70;;;;;;;4.76;77.01;99778.19;109206;1280;22397;-60
2022/04/17 09:37:35;;;;;;;10.00;3.40;;;;;;;4.85;77.00;99780.61;109220;1278;22433;-60
2022/04/17 09:40:07;;;;;;;4.60;2.90;;;;;;;4.90;76.49;99782.38;109769;1270;22464;-60
2022/04/17 09:42:35;;;;;;;5.20;2.10;;;;;;;4.91;75.81;99776.08;109750;1270;23274;-59
2022/04/17 09:45:06;;;;;;;1.70;1.40;;;;;;;4.91;75.14;99781.90;109628;1270;22400;-60
2022/04/17 09:47:36;;;;;;;1.90;1.30;;;;;;;4.86;73.41;99782.05;109699;1269;22243;-59
2022/04/17 09:50:08;;;;;;;1.80;1.50;;;;;;;4.78;72.82;99783.20;109773;1268;22448;-60
2022/04/17 09:52:43;;;;;;;3.00;2.60;;;;;;;4.69;72.06;99780.09;109777;1270;22384;-59
2022/04/17 09:55:11;;;;;;;4.90;3.10;;;;;;;4.62;72.61;99779.11;109780;1269;22245;-60
2022/04/17 09:57:40;;;;;;;1.70;1.50;;;;;;;4.60;72.44;99780.46;109742;1268;22418;-60
2022/04/17 10:00:13;;;;;;;3.00;1.90;;;;;;;4.61;72.42;99773.81;109755;1269;22388;-60
2022/04/17 10:02:43;;;;;;;1.90;1.50;;;;;;;4.64;72.70;99774.98;109786;1269;22424;-60
2022/04/17 10:05:31;;;;;;;8.90;5.20;;;;;;;4.69;72.15;99774.07;109766;1270;22455;-59
2022/04/17 10:08:00;;;;;;;3.90;2.60;;;;;;;4.71;71.85;99775.52;109725;1270;22451;-60
2022/04/17 10:10:29;;;;;;;3.00;1.80;;;;;;;4.74;71.97;99769.11;109785;1270;22421;-60
2022/04/17 10:12:57;;;;;;;2.10;1.30;;;;;;;4.78;71.46;99773.19;109786;1269;22440;-60
2022/04/17 10:15:26;;;;;;;2.20;1.60;;;;;;;4.84;70.76;99777.98;109040;1273;22881;-59
2022/04/17 10:17:55;;;;;;;1.80;1.50;;;;;;;4.82;70.01;99778.40;109689;1273;23197;-60
2022/04/17 10:20:25;;;;;;;1.20;1.10;;;;;;;4.78;70.43;99774.48;109672;1270;22531;-59
2022/04/17 10:22:57;;;;;;;1.70;1.30;;;;;;;4.75;70.50;99769.98;109757;1270;22555;-60
2022/04/17 10:25:26;;;;;;;3.00;2.40;;;;;;;4.70;70.81;99767.95;109687;1270;22437;-60
2022/04/17 10:27:57;;;;;;;2.90;1.90;;;;;;;4.65;71.46;99767.67;109758;1270;22433;-59
2022/04/17 10:30:50;;;;;;;11.00;5.90;;;;;;;4.61;71.24;99766.48;109673;1270;22249;-59
2022/04/17 10:33:31;;;;;;;2.50;2.00;;;;;;;4.56;71.23;99772.86;109573;1271;22431;-59
2022/04/17 10:36:08;;;;;;;3.50;2.40;;;;;;;4.50;71.10;99772.45;109564;1270;22433;-59
2022/04/17 10:39:20;;;;;;;4.50;2.30;;;;;;;4.47;71.83;99776.29;109798;1270;23152;-59
2022/04/17 10:41:48;;;;;;;2.80;1.90;;;;;;;4.45;71.71;99779.64;109701;1269;22480;-59
2022/04/17 10:44:16;;;;;;;2.20;1.50;;;;;;;4.46;71.10;99774.24;109737;1270;23275;-61
2022/04/17 10:46:49;;;;;;;3.50;2.00;;;;;;;4.46;70.73;99774.74;109773;1270;22401;-63
2022/04/17 10:49:19;;;;;;;6.10;2.70;;;;;;;4.46;69.95;99767.73;109741;1270;22434;-65
2022/04/17 10:51:51;;;;;;;14.90;3.60;;;;;;;4.47;69.96;99766.80;109758;1270;23509;-64
2022/04/17 10:54:49;;;;;;;6.00;2.80;;;;;;;4.52;69.71;99764.11;109788;1270;22440;-65
2022/04/17 10:57:24;;;;;;;2.30;1.70;;;;;;;4.58;69.52;99764.70;109755;1270;22431;-63
2022/04/17 11:00:28;;;;;;;5.00;3.30;;;;;;;4.64;69.27;99761.20;109718;1270;22338;-63
2022/04/17 11:03:21;;;;;;;2.30;1.70;;;;;;;4.69;69.56;99760.33;109776;1270;22479;-64
2022/04/17 11:08:28;;;;;;;9.80;4.90;;;;;;;4.86;69.27;99758.80;109773;1268;22602;-63
2022/04/17 11:11:02;;;;;;;3.30;2.50;;;;;;;4.97;69.79;99757.73;109669;1270;23178;-64
2022/04/17 11:13:34;;;;;;;2.40;2.00;;;;;;;5.14;70.19;99754.45;109750;1270;22589;-63
2022/04/17 11:16:06;;;;;;;2.40;1.70;;;;;;;5.32;69.25;99751.71;108152;1269;22547;-60
2022/04/17 11:18:35;;;;;;;3.40;2.40;;;;;;;5.43;68.47;99749.15;109762;1270;22485;-60
2022/04/17 11:21:36;;;;;;;5.40;3.30;;;;;;;5.46;67.43;99754.02;109590;1270;22416;-61
2022/04/17 11:24:04;;;;;;;2.40;2.00;;;;;;;5.42;67.06;99743.86;109629;1271;22496;-60
2022/04/17 11:26:53;;;;;;;2.50;1.90;;;;;;;5.40;67.37;99740.84;109765;1269;22450;-60
2022/04/17 11:29:43;;;;;;;3.00;1.90;;;;;;;5.41;67.99;99741.50;109738;1269;22440;-60
2022/04/17 11:32:18;;;;;;;3.60;1.50;;;;;;;5.36;67.71;99743.79;109798;1268;22490;-61
2022/04/17 11:34:54;;;;;;;1.70;1.40;;;;;;;5.23;66.86;99743.29;109758;1270;22366;-60
2022/04/17 11:37:23;;;;;;;1.80;1.50;;;;;;;5.05;68.00;99755.36;109795;1269;22469;-60
2022/04/17 11:39:52;;;;;;;2.30;1.30;;;;;;;4.87;69.18;99759.52;109772;1270;22559;-60
2022/04/17 11:42:21;;;;;;;2.90;1.80;;;;;;;4.66;70.96;99761.99;109761;1270;22369;-60
2022/04/17 11:44:49;;;;;;;3.20;1.70;;;;;;;4.41;72.31;99771.55;109752;1268;22508;-60
2022/04/17 11:47:22;;;;;;;2.80;1.90;;;;;;;4.19;73.36;99767.04;109786;1270;23166;-60
2022/04/17 11:49:50;;;;;;;1.40;1.20;;;;;;;4.09;74.06;99770.28;109765;1269;22559;-60
2022/04/17 11:52:19;;;;;;;1.80;1.30;;;;;;;4.00;73.31;99764.76;109765;1270;22266;-60
2022/04/17 11:54:48;;;;;;;1.50;1.00;;;;;;;3.90;73.66;99761.85;109756;1270;22435;-60
2022/04/17 11:57:19;;;;;;;3.20;2.70;;;;;;;3.85;74.26;99757.92;109757;1270;22427;-60
2022/04/17 11:59:56;;;;;;;1.50;1.40;;;;;;;3.85;74.84;99755.39;109746;1270;22441;-60
2022/04/17 12:02:25;;;;;;;3.00;1.60;;;;;;;3.92;75.34;99759.04;109795;1270;22391;-60
2022/04/17 12:04:57;;;;;;;9.20;3.20;;;;;;;4.02;75.28;99756.82;109730;1271;22990;-60
2022/04/17 12:07:26;;;;;;;4.60;2.50;;;;;;;4.16;74.90;99759.23;109761;1270;22389;-60
2022/04/17 12:10:10;;;;;;;5.40;2.50;;;;;;;4.29;75.15;99754.61;109717;1271;22432;-59
2022/04/17 12:12:58;;;;;;;4.90;2.60;;;;;;;4.47;74.81;99760.81;109774;1270;23027;-60
2022/04/17 12:15:26;;;;;;;9.10;3.40;;;;;;;4.59;74.38;99764.30;109742;1270;22409;-59
2022/04/17 12:17:59;;;;;;;13.70;5.70;;;;;;;4.69;73.82;99770.04;109759;1270;22641;-59
2022/04/17 12:20:28;;;;;;;6.60;3.00;;;;;;;4.73;73.42;99770.40;109798;1270;22472;-59